Time;durP1;ratioP1;P1;durP2;ratioP2;P2;SDS_P1;SDS_P2;PMS_P1;PMS_P2;Temp;Humidity;BMP_temperature;BMP_pressure;BME280_temperature;BME280_humidity;BME280_pressure;Samples;Min_cycle;Max_cycle;Signal;HPM_P1;HPM_P2
2023/06/18 00:00:43;;;;;;;2.75;2.10;;;;;;;;;;12420484;23;20023;-88
2023/06/18 00:05:47;;;;;;;3.20;2.33;;;;;;;;;;12420901;23;20103;-89
2023/06/18 00:10:50;;;;;;;4.65;2.40;;;;;;;;;;12421453;23;20028;-89
2023/06/18 00:15:55;;;;;;;3.22;2.30;;;;;;;;;;12420241;23;20028;-88
2023/06/18 00:20:59;;;;;;;3.17;2.10;;;;;;;;;;12422952;23;20421;-88
2023/06/18 00:26:02;;;;;;;3.55;2.20;;;;;;;;;;12422493;23;20035;-89
2023/06/18 00:31:11;;;;;;;3.08;2.22;;;;;;;;;;12445552;23;20083;-89
2023/06/18 00:36:15;;;;;;;2.30;1.85;;;;;;;;;;12420303;23;20030;-88
2023/06/18 00:41:18;;;;;;;3.25;2.40;;;;;;;;;;12422716;23;20032;-89
2023/06/18 00:46:24;;;;;;;3.03;2.50;;;;;;;;;;12444784;23;20380;-89
2023/06/18 00:51:28;;;;;;;5.25;3.17;;;;;;;;;;12420926;23;20023;-89
2023/06/18 00:56:33;;;;;;;2.53;2.30;;;;;;;;;;12443219;23;20087;-89
2023/06/18 01:01:38;;;;;;;3.53;2.85;;;;;;;;;;12422319;23;20523;-89
2023/06/18 01:06:42;;;;;;;3.50;2.80;;;;;;;;;;12420382;23;20040;-89
2023/06/18 01:11:45;;;;;;;4.32;2.50;;;;;;;;;;12421493;23;20681;-89
2023/06/18 01:16:51;;;;;;;3.47;2.42;;;;;;;;;;12420836;23;20019;-88
2023/06/18 01:22:01;;;;;;;3.35;2.67;;;;;;;;;;12445915;23;20020;-89
2023/06/18 01:27:06;;;;;;;2.78;2.35;;;;;;;;;;12416628;23;20035;-89
2023/06/18 01:32:11;;;;;;;3.08;2.53;;;;;;;;;;12419703;23;20078;-89
2023/06/18 01:37:31;;;;;;;3.38;2.03;;;;;;;;;;12433102;23;20031;-88
2023/06/18 01:42:38;;;;;;;3.05;2.35;;;;;;;;;;12421235;23;20027;-89
2023/06/18 01:47:44;;;;;;;3.25;2.25;;;;;;;;;;12419501;23;20032;-89
2023/06/18 01:52:50;;;;;;;5.07;2.25;;;;;;;;;;12445772;23;20038;-89
2023/06/18 01:57:54;;;;;;;2.40;2.00;;;;;;;;;;12421742;23;20535;-89
2023/06/18 02:02:59;;;;;;;4.93;2.25;;;;;;;;;;12448019;23;20369;-89
2023/06/18 02:08:03;;;;;;;2.88;2.40;;;;;;;;;;12423756;23;20446;-89
2023/06/18 02:13:07;;;;;;;3.22;2.53;;;;;;;;;;12423382;23;20024;-89
2023/06/18 02:18:12;;;;;;;2.63;2.28;;;;;;;;;;12423706;23;20099;-89
2023/06/18 02:23:16;;;;;;;2.03;1.77;;;;;;;;;;12421970;23;20469;-89
2023/06/18 02:28:19;;;;;;;3.72;2.13;;;;;;;;;;12422363;23;20058;-92
2023/06/18 02:33:25;;;;;;;3.65;1.98;;;;;;;;;;12423952;23;20034;-89
2023/06/18 02:38:28;;;;;;;2.35;1.92;;;;;;;;;;12422429;23;20038;-89
2023/06/18 02:43:32;;;;;;;3.28;2.25;;;;;;;;;;12421381;23;20092;-89
2023/06/18 02:48:37;;;;;;;2.25;1.95;;;;;;;;;;12422577;23;20164;-89
2023/06/18 02:53:41;;;;;;;3.05;2.20;;;;;;;;;;12423072;23;20028;-89
2023/06/18 02:58:46;;;;;;;3.97;2.20;;;;;;;;;;12421238;23;20027;-89
2023/06/18 03:03:51;;;;;;;2.90;2.07;;;;;;;;;;12445922;23;20359;-90
2023/06/18 03:08:55;;;;;;;2.72;2.08;;;;;;;;;;12421864;23;20038;-89
2023/06/18 03:14:00;;;;;;;2.83;2.38;;;;;;;;;;12445027;23;20054;-89
2023/06/18 03:19:05;;;;;;;3.30;2.28;;;;;;;;;;12420434;23;20034;-90
2023/06/18 03:24:11;;;;;;;3.42;2.78;;;;;;;;;;12422049;23;20031;-89
2023/06/18 03:29:15;;;;;;;3.13;2.50;;;;;;;;;;12421526;23;20038;-89
2023/06/18 03:34:21;;;;;;;2.83;2.50;;;;;;;;;;12420615;23;20076;-89
2023/06/18 03:39:26;;;;;;;3.38;2.60;;;;;;;;;;12420472;23;20476;-92
2023/06/18 03:44:30;;;;;;;2.38;2.15;;;;;;;;;;12422104;23;20051;-92
2023/06/18 03:49:35;;;;;;;2.40;2.10;;;;;;;;;;12421501;23;20110;-92
2023/06/18 03:54:39;;;;;;;2.60;2.20;;;;;;;;;;12420947;23;20030;-92
2023/06/18 03:59:42;;;;;;;3.45;2.22;;;;;;;;;;12422018;23;20518;-92
2023/06/18 04:04:48;;;;;;;2.90;2.00;;;;;;;;;;12422150;23;20076;-91
2023/06/18 04:09:52;;;;;;;3.72;2.40;;;;;;;;;;12444330;23;20027;-92
2023/06/18 04:14:55;;;;;;;3.85;2.35;;;;;;;;;;12421106;23;20023;-92
2023/06/18 04:20:00;;;;;;;2.90;2.55;;;;;;;;;;12420947;23;20028;-92
2023/06/18 04:25:07;;;;;;;2.90;2.33;;;;;;;;;;12445838;23;20027;-91
2023/06/18 04:30:10;;;;;;;;;;;;;;;;;;12420481;23;20035;-92
2023/06/18 04:35:17;;;;;;;2.45;1.70;;;;;;;;;;12421282;23;19922;-89
2023/06/18 04:40:21;;;;;;;2.38;1.80;;;;;;;;;;12444832;23;20028;-89
2023/06/18 04:45:25;;;;;;;3.22;2.20;;;;;;;;;;12444643;23;20059;-88
2023/06/18 04:50:30;;;;;;;3.90;2.60;;;;;;;;;;12444826;23;20058;-89
2023/06/18 04:55:34;;;;;;;2.75;2.05;;;;;;;;;;12420618;23;20091;-89
2023/06/18 05:00:38;;;;;;;2.88;1.90;;;;;;;;;;12436518;23;20019;-88
2023/06/18 05:05:43;;;;;;;2.60;1.95;;;;;;;;;;12420314;23;20349;-89
2023/06/18 05:10:49;;;;;;;2.50;1.83;;;;;;;;;;12421398;23;20581;-89
2023/06/18 05:15:54;;;;;;;3.53;1.92;;;;;;;;;;12443070;23;20115;-88
2023/06/18 05:20:59;;;;;;;3.42;2.22;;;;;;;;;;12421591;23;20487;-89
2023/06/18 05:26:03;;;;;;;2.37;2.13;;;;;;;;;;12420625;23;20039;-89
2023/06/18 05:31:08;;;;;;;2.55;2.00;;;;;;;;;;12421010;23;20031;-89
2023/06/18 05:36:14;;;;;;;3.40;1.73;;;;;;;;;;12419817;23;20028;-88
2023/06/18 05:41:18;;;;;;;2.75;1.80;;;;;;;;;;12420155;23;20106;-86
2023/06/18 05:46:21;;;;;;;1.88;1.58;;;;;;;;;;12419702;23;20092;-88
2023/06/18 05:51:27;;;;;;;2.17;1.73;;;;;;;;;;12420064;23;20412;-88
2023/06/18 05:56:30;;;;;;;2.67;2.22;;;;;;;;;;12420033;23;20253;-88
2023/06/18 06:01:34;;;;;;;2.15;1.80;;;;;;;;;;12420846;23;20028;-89
2023/06/18 06:06:40;;;;;;;2.33;2.13;;;;;;;;;;12442871;23;20423;-89
2023/06/18 06:11:45;;;;;;;3.47;2.42;;;;;;;;;;12420512;23;20032;-89
2023/06/18 06:16:50;;;;;;;2.58;2.22;;;;;;;;;;12420214;23;20490;-89
2023/06/18 06:21:55;;;;;;;2.78;2.15;;;;;;;;;;12420108;23;20439;-87
2023/06/18 06:26:59;;;;;;;2.10;1.92;;;;;;;;;;12441996;23;20038;-88
2023/06/18 06:32:05;;;;;;;4.00;2.00;;;;;;;;;;12419757;23;20032;-89
2023/06/18 06:37:11;;;;;;;3.22;2.42;;;;;;;;;;12443328;23;20032;-88
2023/06/18 06:42:15;;;;;;;2.10;1.83;;;;;;;;;;12421622;23;20028;-88
2023/06/18 06:47:23;;;;;;;2.50;2.00;;;;;;;;;;12418680;23;20116;-88
2023/06/18 06:52:51;;;;;;;2.97;1.52;;;;;;;;;;12421775;23;20058;-88
2023/06/18 06:57:54;;;;;;;2.63;2.40;;;;;;;;;;12446762;23;20051;-87
2023/06/18 07:02:58;;;;;;;3.53;2.53;;;;;;;;;;12423526;23;20035;-88
2023/06/18 07:08:05;;;;;;;1.98;1.65;;;;;;;;;;12421367;23;20386;-88
2023/06/18 07:13:08;;;;;;;2.60;1.88;;;;;;;;;;12446969;23;20096;-88
2023/06/18 07:18:12;;;;;;;2.13;1.90;;;;;;;;;;12422039;23;20028;-87
2023/06/18 07:23:17;;;;;;;2.50;2.10;;;;;;;;;;12422271;23;20035;-87
2023/06/18 07:28:20;;;;;;;2.05;1.85;;;;;;;;;;12422922;23;20051;-87
2023/06/18 07:33:24;;;;;;;2.78;1.58;;;;;;;;;;12421364;23;20027;-91
2023/06/18 07:38:28;;;;;;;3.40;2.47;;;;;;;;;;12423551;23;20028;-88
2023/06/18 07:43:32;;;;;;;3.47;2.70;;;;;;;;;;12423129;23;20085;-87
2023/06/18 07:48:36;;;;;;;4.97;3.33;;;;;;;;;;12421215;23;20023;-88
2023/06/18 07:53:41;;;;;;;2.95;2.60;;;;;;;;;;12423017;23;20024;-87
2023/06/18 07:58:45;;;;;;;2.80;2.50;;;;;;;;;;12462215;23;20031;-87
2023/06/18 08:03:48;;;;;;;2.30;2.00;;;;;;;;;;12479166;23;20101;-87
2023/06/18 08:08:54;;;;;;;1.70;1.50;;;;;;;;;;12457218;23;20064;-87
2023/06/18 08:13:57;;;;;;;3.23;2.87;;;;;;;;;;12421036;23;20111;-88
2023/06/18 08:19:01;;;;;;;3.03;2.72;;;;;;;;;;12419515;23;20051;-86
2023/06/18 08:24:07;;;;;;;2.05;1.67;;;;;;;;;;12420369;23;20035;-87
2023/06/18 08:29:10;;;;;;;3.03;2.70;;;;;;;;;;12419776;23;20035;-87
2023/06/18 08:34:13;;;;;;;2.75;2.08;;;;;;;;;;12457752;23;20028;-81
2023/06/18 08:39:18;;;;;;;2.35;2.15;;;;;;;;;;12457826;23;20032;-80
2023/06/18 08:44:23;;;;;;;2.03;1.70;;;;;;;;;;12437238;23;20038;-81
2023/06/18 08:49:27;;;;;;;11.18;2.70;;;;;;;;;;12458777;23;20455;-81
2023/06/18 08:54:34;;;;;;;2.50;2.17;;;;;;;;;;12411665;23;20070;-81
2023/06/18 08:59:38;;;;;;;2.58;2.20;;;;;;;;;;12421416;23;20035;-82
2023/06/18 09:04:42;;;;;;;2.03;1.83;;;;;;;;;;12432363;23;20035;-82
2023/06/18 09:09:46;;;;;;;1.67;1.58;;;;;;;;;;12430306;23;20051;-82
2023/06/18 09:14:51;;;;;;;2.42;2.13;;;;;;;;;;12452039;23;20208;-82
2023/06/18 09:19:55;;;;;;;2.03;1.70;;;;;;;;;;12428535;23;20034;-83
2023/06/18 09:25:00;;;;;;;4.00;2.70;;;;;;;;;;12452368;23;20047;-83
2023/06/18 09:30:07;;;;;;;5.07;2.55;;;;;;;;;;12430084;23;20039;-83
2023/06/18 09:35:13;;;;;;;2.25;2.05;;;;;;;;;;12429533;23;20087;-84
2023/06/18 09:40:20;;;;;;;3.20;2.25;;;;;;;;;;12452037;23;20031;-83
2023/06/18 09:45:25;;;;;;;2.47;2.28;;;;;;;;;;12427666;23;20020;-84
2023/06/18 09:50:28;;;;;;;2.95;2.33;;;;;;;;;;12451542;23;20019;-83
2023/06/18 09:55:34;;;;;;;3.65;2.08;;;;;;;;;;12426486;23;20070;-84
2023/06/18 10:00:39;;;;;;;2.80;2.47;;;;;;;;;;12431955;23;20034;-83
2023/06/18 10:05:42;;;;;;;8.93;3.40;;;;;;;;;;12453741;23;20032;-83
2023/06/18 10:10:47;;;;;;;3.47;2.47;;;;;;;;;;12433830;23;20030;-84
2023/06/18 10:15:51;;;;;;;2.47;2.28;;;;;;;;;;12426717;23;20121;-83
2023/06/18 10:20:57;;;;;;;2.70;2.35;;;;;;;;;;12426700;23;20633;-83
2023/06/18 10:26:02;;;;;;;3.15;2.30;;;;;;;;;;12427517;23;20047;-83
2023/06/18 10:31:07;;;;;;;2.15;1.95;;;;;;;;;;12430066;23;20020;-84
2023/06/18 10:36:11;;;;;;;2.28;1.92;;;;;;;;;;12429862;23;20028;-83
2023/06/18 10:41:21;;;;;;;2.25;2.05;;;;;;;;;;12428848;23;20023;-83
2023/06/18 10:46:25;;;;;;;2.95;2.10;;;;;;;;;;12427750;23;20054;-83
2023/06/18 10:51:28;;;;;;;2.53;2.33;;;;;;;;;;12450656;23;20060;-84
2023/06/18 10:56:37;;;;;;;4.60;2.17;;;;;;;;;;12448179;23;20028;-84
2023/06/18 11:01:43;;;;;;;3.83;3.30;;;;;;;;;;12439860;23;20072;-83
2023/06/18 11:06:48;;;;;;;2.60;2.38;;;;;;;;;;12425395;23;20121;-83
2023/06/18 11:11:53;;;;;;;4.18;2.03;;;;;;;;;;12428814;23;20058;-83
2023/06/18 11:17:11;;;;;;;2.55;2.20;;;;;;;;;;12426678;23;20356;-83
2023/06/18 11:22:15;;;;;;;1.85;1.65;;;;;;;;;;12421172;23;20029;-83
2023/06/18 11:27:20;;;;;;;1.60;1.50;;;;;;;;;;12446790;23;20095;-83
2023/06/18 11:32:24;;;;;;;2.55;1.63;;;;;;;;;;12423859;23;20460;-83
2023/06/18 11:37:28;;;;;;;4.03;2.20;;;;;;;;;;12442293;23;20031;-83
2023/06/18 11:42:33;;;;;;;2.85;1.98;;;;;;;;;;12445033;23;20032;-83
2023/06/18 11:47:36;;;;;;;2.08;1.85;;;;;;;;;;12441840;23;20047;-83
2023/06/18 11:52:40;;;;;;;2.63;2.00;;;;;;;;;;12419438;23;20120;-83
2023/06/18 11:57:45;;;;;;;1.75;1.65;;;;;;;;;;12417005;23;20428;-83
2023/06/18 12:02:48;;;;;;;1.75;1.65;;;;;;;;;;12422343;23;20028;-84
2023/06/18 12:07:51;;;;;;;4.43;2.23;;;;;;;;;;12459337;23;20020;-83
2023/06/18 12:13:02;;;;;;;2.63;2.00;;;;;;;;;;12447324;23;20028;-83
2023/06/18 12:18:14;;;;;;;2.13;1.75;;;;;;;;;;12435452;23;20352;-83
2023/06/18 12:23:18;;;;;;;1.98;1.80;;;;;;;;;;12436502;23;20015;-83
2023/06/18 12:28:25;;;;;;;1.50;1.40;;;;;;;;;;12435861;23;20052;-83
2023/06/18 12:33:28;;;;;;;1.75;1.65;;;;;;;;;;12431400;23;20023;-84
2023/06/18 12:38:39;;;;;;;2.20;2.00;;;;;;;;;;12429559;23;20035;-84
2023/06/18 12:43:44;;;;;;;1.90;1.65;;;;;;;;;;12457711;23;20027;-84
2023/06/18 12:48:52;;;;;;;2.03;1.85;;;;;;;;;;12432690;23;20692;-83
2023/06/18 12:53:55;;;;;;;2.00;1.73;;;;;;;;;;12435158;23;20031;-84
2023/06/18 12:59:01;;;;;;;2.10;1.90;;;;;;;;;;12438960;23;20030;-83
2023/06/18 13:04:05;;;;;;;1.50;1.40;;;;;;;;;;12436882;23;20044;-83
2023/06/18 13:09:08;;;;;;;1.80;1.42;;;;;;;;;;12439207;23;20027;-83
2023/06/18 13:14:13;;;;;;;1.60;1.30;;;;;;;;;;12458761;23;20046;-83
2023/06/18 13:19:20;;;;;;;1.58;1.48;;;;;;;;;;12433851;23;20051;-84
2023/06/18 13:24:24;;;;;;;2.37;2.13;;;;;;;;;;12434490;23;20564;-84
2023/06/18 13:29:29;;;;;;;2.15;1.77;;;;;;;;;;12456484;23;20027;-83
2023/06/18 13:34:34;;;;;;;1.90;1.65;;;;;;;;;;12438043;23;20030;-84
2023/06/18 13:39:37;;;;;;;2.05;1.85;;;;;;;;;;12439191;23;20020;-83
2023/06/18 13:44:43;;;;;;;3.10;2.30;;;;;;;;;;12439301;23;20032;-83
2023/06/18 13:49:47;;;;;;;3.05;2.70;;;;;;;;;;12436015;23;20024;-84
2023/06/18 13:54:50;;;;;;;2.67;2.45;;;;;;;;;;12434415;23;20024;-83
2023/06/18 13:59:55;;;;;;;2.33;2.10;;;;;;;;;;12462296;23;20027;-83
2023/06/18 14:04:58;;;;;;;;;;;;;;;;;;12440396;23;20035;-83
2023/06/18 14:10:01;;;;;;;1.60;1.50;;;;;;;;;;12462359;23;20316;-83
2023/06/18 14:15:07;;;;;;;3.28;1.50;;;;;;;;;;12439052;23;20019;-83
2023/06/18 14:20:11;;;;;;;2.30;2.10;;;;;;;;;;12438695;23;20348;-83
2023/06/18 14:25:15;;;;;;;3.40;1.20;;;;;;;;;;12442818;23;20032;-83
2023/06/18 14:30:19;;;;;;;1.73;1.52;;;;;;;;;;12458792;23;20054;-83
2023/06/18 14:35:23;;;;;;;;;;;;;;;;;;12440025;23;20023;-91
2023/06/18 14:40:26;;;;;;;1.25;1.15;;;;;;;;;;12459045;23;24816;-87
2023/06/18 14:45:32;;;;;;;1.67;1.58;;;;;;;;;;12456264;23;20034;-87
2023/06/18 14:50:36;;;;;;;1.70;1.60;;;;;;;;;;12484324;23;20046;-88
2023/06/18 14:55:40;;;;;;;1.45;1.35;;;;;;;;;;12458735;23;20023;-87
2023/06/18 15:00:45;;;;;;;1.70;1.60;;;;;;;;;;12458417;23;20494;-88
2023/06/18 15:05:48;;;;;;;1.52;1.42;;;;;;;;;;12466554;23;20043;-87
2023/06/18 15:10:52;;;;;;;1.77;1.67;;;;;;;;;;12453497;23;20080;-88
2023/06/18 15:15:57;;;;;;;2.20;2.00;;;;;;;;;;12456759;23;20035;-87
2023/06/18 15:21:01;;;;;;;1.50;1.40;;;;;;;;;;12458357;23;20019;-89
2023/06/18 15:26:05;;;;;;;2.35;1.27;;;;;;;;;;12457256;23;20034;-88
2023/06/18 15:31:12;;;;;;;1.55;1.30;;;;;;;;;;12457522;23;20027;-91
2023/06/18 15:36:15;;;;;;;1.90;1.52;;;;;;;;;;12482025;23;20102;-90
2023/06/18 15:41:19;;;;;;;2.13;1.85;;;;;;;;;;12455576;23;20027;-88
2023/06/18 15:46:24;;;;;;;1.85;1.55;;;;;;;;;;12495390;23;20031;-87
2023/06/18 15:51:28;;;;;;;1.88;1.67;;;;;;;;;;12456027;23;20023;-88
2023/06/18 15:56:31;;;;;;;2.00;1.80;;;;;;;;;;12454837;23;20191;-87
2023/06/18 16:01:36;;;;;;;2.30;1.77;;;;;;;;;;12455419;23;20425;-87
2023/06/18 16:06:40;;;;;;;;;;;;;;;;;;12456624;23;20110;-87
2023/06/18 16:11:43;;;;;;;1.42;1.33;;;;;;;;;;12457112;23;19922;-89
2023/06/18 16:16:48;;;;;;;4.38;2.03;;;;;;;;;;12455907;23;20031;-87
2023/06/18 16:21:51;;;;;;;;;;;;;;;;;;12456319;23;20455;-87
2023/06/18 16:26:57;;;;;;;1.50;1.40;;;;;;;;;;12482152;23;19917;-87
2023/06/18 16:32:02;;;;;;;2.63;1.70;;;;;;;;;;12481621;23;20034;-88
2023/06/18 16:37:05;;;;;;;2.97;1.55;;;;;;;;;;12455714;23;20031;-87
2023/06/18 16:42:09;;;;;;;1.90;1.70;;;;;;;;;;12455876;23;20334;-88
2023/06/18 16:47:16;;;;;;;1.83;1.53;;;;;;;;;;12455969;23;20027;-87
2023/06/18 16:52:19;;;;;;;3.15;1.83;;;;;;;;;;12456261;23;20024;-90
2023/06/18 16:57:23;;;;;;;1.58;1.45;;;;;;;;;;12491089;23;20035;-87
2023/06/18 17:02:30;;;;;;;2.05;1.77;;;;;;;;;;12456347;23;20030;-87
2023/06/18 17:07:34;;;;;;;2.00;1.80;;;;;;;;;;12455566;23;20091;-85
2023/06/18 17:12:38;;;;;;;2.67;1.70;;;;;;;;;;12451802;23;20387;-85
2023/06/18 17:17:42;;;;;;;1.77;1.67;;;;;;;;;;12475879;23;20034;-85
2023/06/18 17:22:46;;;;;;;1.67;1.55;;;;;;;;;;12452374;23;20023;-85
2023/06/18 17:27:51;;;;;;;2.30;1.58;;;;;;;;;;12451566;23;20079;-85
2023/06/18 17:32:55;;;;;;;1.60;1.50;;;;;;;;;;12451228;23;20035;-85
2023/06/18 17:38:00;;;;;;;2.17;1.63;;;;;;;;;;12477787;23;20027;-84
2023/06/18 17:43:03;;;;;;;1.60;1.42;;;;;;;;;;12453081;23;20464;-84
2023/06/18 17:48:08;;;;;;;2.45;1.77;;;;;;;;;;12481874;23;20035;-84
2023/06/18 17:53:12;;;;;;;1.45;1.35;;;;;;;;;;12452195;23;20625;-85
2023/06/18 17:58:16;;;;;;;3.33;1.70;;;;;;;;;;12451353;23;20023;-85
2023/06/18 18:03:21;;;;;;;3.30;1.90;;;;;;;;;;12484091;23;20106;-85
2023/06/18 18:08:25;;;;;;;1.75;1.63;;;;;;;;;;12450215;23;20027;-84
2023/06/18 18:13:28;;;;;;;1.77;1.60;;;;;;;;;;12475644;23;20482;-85
2023/06/18 18:18:33;;;;;;;2.90;2.00;;;;;;;;;;12478054;23;20035;-85
2023/06/18 18:23:36;;;;;;;1.98;1.58;;;;;;;;;;12410254;23;20471;-85
2023/06/18 18:34:30;;;;;;;3.80;1.83;;;;;;;;;;12410841;23;20344;-86
2023/06/18 18:39:33;;;;;;;1.90;1.70;;;;;;;;;;12411716;23;20026;-86
2023/06/18 18:44:37;;;;;;;2.42;1.70;;;;;;;;;;12414300;23;20357;-86
2023/06/18 18:49:42;;;;;;;2.05;1.85;;;;;;;;;;12418962;23;20024;-86
2023/06/18 18:54:46;;;;;;;2.25;1.90;;;;;;;;;;12419677;23;20051;-86
2023/06/18 18:59:50;;;;;;;2.35;2.15;;;;;;;;;;12418185;23;20397;-86
2023/06/18 19:04:56;;;;;;;3.03;2.10;;;;;;;;;;12419183;23;20688;-86
2023/06/18 19:10:00;;;;;;;2.10;1.90;;;;;;;;;;12417706;23;20409;-86
2023/06/18 19:15:04;;;;;;;2.33;2.00;;;;;;;;;;12420686;23;20515;-87
2023/06/18 19:20:10;;;;;;;2.88;1.98;;;;;;;;;;12417875;23;20047;-86
2023/06/18 19:25:14;;;;;;;3.40;2.75;;;;;;;;;;12417339;23;20453;-87
2023/06/18 19:30:18;;;;;;;4.60;3.33;;;;;;;;;;12418426;23;20103;-86
2023/06/18 19:35:24;;;;;;;4.13;2.72;;;;;;;;;;12420189;23;20106;-86
2023/06/18 19:40:31;;;;;;;4.78;2.78;;;;;;;;;;12416930;23;20058;-87
2023/06/18 19:45:34;;;;;;;3.47;2.47;;;;;;;;;;12416941;23;20103;-87
2023/06/18 19:50:39;;;;;;;3.13;2.20;;;;;;;;;;12418811;23;20023;-88
2023/06/18 19:55:43;;;;;;;2.83;2.17;;;;;;;;;;12416969;23;20497;-89
2023/06/18 20:00:47;;;;;;;2.92;2.42;;;;;;;;;;12418402;23;20028;-89
2023/06/18 20:05:52;;;;;;;3.35;2.38;;;;;;;;;;12419182;23;20032;-89
2023/06/18 20:10:56;;;;;;;2.50;2.30;;;;;;;;;;12418025;23;20647;-88
2023/06/18 20:15:59;;;;;;;2.75;2.00;;;;;;;;;;12416251;23;20041;-88
2023/06/18 20:21:35;;;;;;;4.07;2.15;;;;;;;;;;12406744;23;20024;-88
2023/06/18 20:26:42;;;;;;;2.05;1.80;;;;;;;;;;12415938;23;20103;-88
2023/06/18 20:31:46;;;;;;;3.28;1.95;;;;;;;;;;12416509;23;20666;-87
2023/06/18 20:36:52;;;;;;;3.33;2.22;;;;;;;;;;12416139;23;20031;-88
2023/06/18 20:41:57;;;;;;;2.45;2.25;;;;;;;;;;12423014;23;20047;-93
2023/06/18 20:47:01;;;;;;;2.58;2.30;;;;;;;;;;12423071;23;20413;-91
2023/06/18 20:52:07;;;;;;;3.33;2.58;;;;;;;;;;12422419;23;20028;-91
2023/06/18 20:57:10;;;;;;;;;;;;;;;;;;12423344;23;20086;-92
2023/06/18 21:02:14;;;;;;;2.38;2.10;;;;;;;;;;12423618;23;19942;-94
2023/06/18 21:07:20;;;;;;;2.40;2.20;;;;;;;;;;12421941;23;20074;-92
2023/06/18 21:12:24;;;;;;;2.40;2.13;;;;;;;;;;12422370;23;20106;-92
2023/06/18 21:17:28;;;;;;;2.25;2.05;;;;;;;;;;12423028;23;20035;-93
2023/06/18 21:22:33;;;;;;;2.50;2.30;;;;;;;;;;12422982;23;20027;-91
2023/06/18 21:27:37;;;;;;;2.47;1.98;;;;;;;;;;12421720;23;20057;-89
2023/06/18 21:32:41;;;;;;;2.80;2.15;;;;;;;;;;12419599;23;20027;-90
2023/06/18 21:37:46;;;;;;;2.55;2.35;;;;;;;;;;12417349;23;20031;-90
2023/06/18 21:42:50;;;;;;;2.83;2.23;;;;;;;;;;12405223;23;20047;-89
2023/06/18 21:47:53;;;;;;;2.88;2.40;;;;;;;;;;12419633;23;20024;-89
2023/06/18 21:52:59;;;;;;;2.70;2.22;;;;;;;;;;12417589;23;20028;-89
2023/06/18 21:58:05;;;;;;;2.95;2.30;;;;;;;;;;12418868;23;20757;-89
2023/06/18 22:03:08;;;;;;;3.40;2.63;;;;;;;;;;12418591;23;20654;-89
2023/06/18 22:08:15;;;;;;;2.60;2.25;;;;;;;;;;12418636;23;20254;-89
2023/06/18 22:13:25;;;;;;;2.58;2.30;;;;;;;;;;12420198;23;20339;-89
2023/06/18 22:18:29;;;;;;;3.38;2.08;;;;;;;;;;12418755;23;20088;-87
2023/06/18 22:23:35;;;;;;;2.20;2.00;;;;;;;;;;12418580;23;20098;-88
2023/06/18 22:28:39;;;;;;;3.13;2.60;;;;;;;;;;12418867;23;20084;-87
2023/06/18 22:33:42;;;;;;;2.67;2.17;;;;;;;;;;12419942;23;20027;-87
2023/06/18 22:38:47;;;;;;;2.53;2.33;;;;;;;;;;12418959;23;20034;-89
2023/06/18 22:43:51;;;;;;;2.20;1.90;;;;;;;;;;12419791;23;20424;-88
2023/06/18 22:48:56;;;;;;;2.73;2.33;;;;;;;;;;12417841;23;20082;-89
2023/06/18 22:54:01;;;;;;;2.20;2.00;;;;;;;;;;12421707;23;20027;-89
2023/06/18 22:59:05;;;;;;;2.80;2.20;;;;;;;;;;12420944;23;20511;-88
2023/06/18 23:04:09;;;;;;;2.42;2.22;;;;;;;;;;12419391;23;20032;-88
2023/06/18 23:09:15;;;;;;;2.47;2.20;;;;;;;;;;12417818;23;20811;-89
2023/06/18 23:14:18;;;;;;;;;;;;;;;;;;12420897;23;20053;-88
2023/06/18 23:19:22;;;;;;;1.95;1.80;;;;;;;;;;12420442;23;19918;-88
2023/06/18 23:24:28;;;;;;;2.30;1.95;;;;;;;;;;12418317;23;20464;-88
2023/06/18 23:29:37;;;;;;;2.63;2.20;;;;;;;;;;12417520;23;20417;-88
2023/06/18 23:34:41;;;;;;;3.50;2.60;;;;;;;;;;12421411;23;20028;-88
2023/06/18 23:39:50;;;;;;;2.53;2.33;;;;;;;;;;12418252;23;20087;-89
2023/06/18 23:44:53;;;;;;;2.50;2.17;;;;;;;;;;12418283;23;20423;-89
2023/06/18 23:49:57;;;;;;;3.95;2.47;;;;;;;;;;12421656;23;20416;-88
2023/06/18 23:55:03;;;;;;;2.78;2.20;;;;;;;;;;12419789;23;20034;-89
